Flight Track Log - Related Links

Times and Time Zones

All times are in EDT time to prevent confusion due to time zone crossing. See the AAL936 flight status page for this flight to view local times or setup timezone preferences in your user account.

Time Position Orientation Groundspeed Altitude Reporting Facility
EDT Latitude Longitude Course Direction KTS MPH feet Rate Location/Type
Sat 02:22:43 PM 18.5741 -72.3386 267° West 195 224 2,000  Level FlightAware ADS-B (MTPP / PAP)
Sat 02:23:00 PM 18.5733 -72.3558 267° West 229 264 2,400 1,688 Climbing FlightAware ADS-B (MTPP / PAP)
Sat 02:23:15 PM 18.5724 -72.3731 268° West 249 287 2,900 2,571 Climbing FlightAware ADS-B (MTPP / PAP)
Sat 02:23:28 PM 18.5715 -72.3901 267° West 264 304 3,600 3,310 Climbing FlightAware ADS-B (MTPP / PAP)
Sat 02:23:44 PM 18.5710 -72.4110 271° West 270 311 4,500 3,545 Climbing FlightAware ADS-B (MTPP / PAP)
Sat 02:23:50 PM 18.5714 -72.4188 276° West 270 311 4,900 4,200 Climbing FlightAware ADS-B (MTPP / PAP)
Sat 02:23:54 PM 18.5721 -72.4239 282° West 270 311 5,200 3,818 Climbing FlightAware ADS-B (MTPP / PAP)
Sat 02:24:01 PM 18.5746 -72.4325 295° West 270 311 5,600 3,857 Climbing FlightAware ADS-B (MTPP / PAP)
Sat 02:24:08 PM 18.5791 -72.4400 308° West 269 310 6,100 4,000 Climbing FlightAware ADS-B (MTPP / PAP)
Sat 02:24:13 PM 18.5832 -72.4449 317° Northwest 265 305 6,400 4,200 Climbing FlightAware ADS-B (MTPP / PAP)
Sat 02:24:18 PM 18.5880 -72.4490 326° Northwest 266 306 6,800 4,200 Climbing FlightAware ADS-B (MTPP / PAP)
Sat 02:24:23 PM 18.5945 -72.4528 336° Northwest 267 307 7,100 3,333 Climbing FlightAware ADS-B (MTPP / PAP)
Sat 02:24:27 PM 18.5983 -72.4543 342° North 270 311 7,300 2,667 Climbing FlightAware ADS-B (MTPP / PAP)
Sat 02:24:32 PM 18.6048 -72.4562 349° North 274 315 7,500 2,769 Climbing FlightAware ADS-B (MTPP / PAP)
Sat 02:24:40 PM 18.6155 -72.4572 North 283 326 7,900 2,700 Climbing FlightAware ADS-B (MTPP / PAP)
Sat 02:24:52 PM 18.6311 -72.4555 10° North 293 337 8,400 3,000 Climbing FlightAware ADS-B (MTPP / PAP)
Sat 02:25:06 PM 18.6498 -72.4522 North 297 342 9,200 3,191 Climbing FlightAware ADS-B (MTPP / PAP)
Sat 02:25:39 PM 18.6953 -72.4437 11° North 323 372 10,900 2,344 Climbing FlightAware ADS-B (MTPP / PAP)
Sat 02:26:10 PM 18.7446 -72.4330 12° North 376 433 11,700 1,800 Climbing FlightAware ADS-B (MTPP / PAP)
Sat 02:26:29 PM 18.7796 -72.4296 356° North 401 461 12,400 2,897 Climbing FlightAware ADS-B (MTPP / PAP)
Sat 02:26:39 PM 18.7990 -72.4332 345° North 402 463 13,100 4,286 Climbing FlightAware ADS-B (MTPP / PAP)
Sat 02:26:50 PM 18.8182 -72.4409 335° Northwest 405 466 13,900 4,244 Climbing FlightAware ADS-B (MTPP / PAP)
Sat 02:27:20 PM 18.8654 -72.4735 324° Northwest 405 466 16,000 3,900 Climbing FlightAware ADS-B (MTPP / PAP)
Sat 02:27:50 PM 18.9128 -72.5072 329° Northwest 414 476 17,800 3,153 Climbing FlightAware ADS-B (MTPP / PAP)
Sat 02:28:19 PM 18.9616 -72.5369 331° Northwest 425 489 19,100 2,800 Climbing FlightAware ADS-B (MTPP / PAP)
Sat 02:28:50 PM 19.0166 -72.5676 334° Northwest 436 502 20,600 2,789 Climbing FlightAware ADS-B (MTPP / PAP)
Sat 02:29:30 PM 19.0889 -72.6059 334° Northwest 447 514 22,400 2,559 Climbing FlightAware ADS-B (MTPP / PAP)
Sat 02:29:58 PM 19.1428 -72.6341 333° Northwest 459 528 23,500 2,400 Climbing FlightAware ADS-B (MTPP / PAP)
Sat 02:30:30 PM 19.2027 -72.6701 329° Northwest 469 540 24,800 2,535 Climbing FlightAware ADS-B (MTPP / PAP)
Sat 02:31:09 PM 19.2747 -72.7166 329° Northwest 473 544 26,500 2,535 Climbing FlightAware ADS-B (MTPP / PAP)
Sat 02:31:41 PM 19.3346 -72.7542 330° Northwest 477 549 27,800 1,233 Climbing FlightAware ADS-B (MTPP / PAP)
Sat 02:32:22 PM 19.4135 -72.8026 331° Northwest 464 534 28,000 169 Climbing FlightAware ADS-B (MTPP / PAP)
Sat 02:32:52 PM 19.4709 -72.8371 331° Northwest 481 554 28,000  Level FlightAware ADS-B (MTPP / PAP)
Sat 02:33:26 PM 19.5359 -72.8762 331° Northwest 489 563 28,000  Level FlightAware ADS-B (MTPP / PAP)
Sat 02:33:53 PM 19.5898 -72.9084 331° Northwest 491 565 28,000  Level FlightAware ADS-B (MTPP / PAP)
Sat 02:34:24 PM 19.6518 -72.9454 331° Northwest 492 566 28,000  Level FlightAware ADS-B (MTPP / PAP)
Sat 02:34:56 PM 19.7138 -72.9825 331° Northwest 491 565 28,000  Level FlightAware ADS-B (MTPP / PAP)
Sat 02:35:24 PM 19.7708 -73.0167 331° Northwest 489 563 28,000  Level FlightAware ADS-B (MTPP / PAP)
Sat 02:36:10 PM 19.8636 -73.0685 333° Northwest 488 562 28,000  Level FlightAware ADS-B (MTPP / PAP)
Sat 02:36:38 PM 19.9192 -73.0989 333° Northwest 487 560 28,000  Level FlightAware ADS-B (MTPP / PAP)
Sat 02:37:40 PM 20.0442 -73.1683 333° Northwest 489 563 28,000  Level FlightAware ADS-B (MTPP / PAP)
Sat 02:38:11 PM 20.1047 -73.2022 331° Northwest 490 564 28,000  Level FlightAware ADS-B (MTPP / PAP)
Sat 02:38:38 PM 20.1561 -73.2388 323° Northwest 492 566 28,000  Level FlightAware ADS-B (MTPP / PAP)
Sat 02:39:19 PM 20.2281 -73.3023 320° Northwest 493 567 28,000  Level FlightAware ADS-B (MTPP / PAP)
Sat 02:39:50 PM 20.2830 -73.3530 319° Northwest 493 567 28,000  Level FlightAware ADS-B (MTPP / PAP)
Sat 02:40:20 PM 20.3328 -73.3990 319° Northwest 493 567 28,000  Level FlightAware ADS-B (MTPP / PAP)
Sat 02:40:49 PM 20.3838 -73.4462 319° Northwest 493 567 28,000  Level FlightAware ADS-B (MTPP / PAP)
Sat 02:41:35 PM 20.4622 -73.5181 320° Northwest 492 566 28,000 64 Level FlightAware ADS-B (MTPP / PAP)
Sat 02:42:23 PM 20.5443 -73.5936 319° Northwest 494 568 28,100 1,455 Climbing FlightAware ADS-B (MTPP / PAP)
Sat 02:43:14 PM 20.6330 -73.6753 320° Northwest 488 562 30,400 2,633 Climbing FlightAware ADS-B (MTPP / PAP)
Sat 02:44:01 PM 20.7110 -73.7474 320° Northwest 480 552 32,400 2,256 Climbing FlightAware ADS-B (MTPP / PAP)
Sat 02:45:19 PM 20.8464 -73.8664 320° Northwest 480 552 35,100 1,915 Climbing Miami Center
Sat 02:46:22 PM 20.9478 -73.9606 319° Northwest 480 552 36,900 1,392 Climbing Miami Center
Sat 02:47:24 PM 21.0442 -74.0511 319° Northwest 480 552 38,000 532 Climbing Miami Center
Sat 02:48:26 PM 21.1444 -74.1453 319° Northwest 480 552 38,000  Level Miami Center
Sat 02:49:28 PM 21.2444 -74.2392 319° Northwest 479 551 38,000  Level Miami Center
Sat 02:50:30 PM 21.3639 -74.3494 319° Northwest 474 545 38,000  Level Miami Center
Sat 02:51:33 PM 21.4611 -74.4425 318° Northwest 471 542 38,000  Level Miami Center
Sat 02:52:35 PM 21.5586 -74.5336 319° Northwest 468 539 38,000  Level Miami Center
Sat 02:53:37 PM 21.6567 -74.6258 319° Northwest 467 537 38,000  Level Miami Center
Sat 02:54:39 PM 21.7547 -74.7175 319° Northwest 467 537 38,000  Level Miami Center
Sat 02:55:41 PM 21.8525 -74.8117 318° Northwest 467 537 38,000  Level Miami Center
Sat 02:56:44 PM 21.9703 -74.9236 319° Northwest 467 537 38,000  Level Miami Center
Sat 02:57:46 PM 22.0697 -75.0169 319° Northwest 469 540 38,000  Level Miami Center
Sat 02:58:48 PM 22.1608 -75.1197 314° West 471 542 38,000  Level Miami Center
Sat 02:59:50 PM 22.2386 -75.2308 307° West 466 536 38,000  Level Miami Center
Sat 03:00:52 PM 22.3203 -75.3436 308° West 470 541 38,000  Level Miami Center
Sat 03:01:54 PM 22.4019 -75.4578 308° West 476 548 38,000  Level Miami Center
Sat 03:02:57 PM 22.5019 -75.5931 309° West 476 548 38,000  Level Miami Center
Sat 03:03:59 PM 22.5844 -75.7067 308° West 477 549 38,000  Level Miami Center
Sat 03:05:01 PM 22.6675 -75.8208 308° West 477 549 38,000  Level Miami Center
Sat 03:06:03 PM 22.7494 -75.9350 308° West 477 549 38,000  Level Miami Center
Sat 03:07:05 PM 22.8328 -76.0469 309° West 477 549 38,000  Level Miami Center
Sat 03:08:07 PM 22.9142 -76.1622 307° West 477 549 38,000  Level Miami Center
Sat 03:09:09 PM 22.9972 -76.2747 309° West 476 548 38,000  Level Miami Center
Sat 03:10:12 PM 23.0961 -76.4111 308° West 474 545 38,000  Level Miami Center
Sat 03:11:14 PM 23.1767 -76.5261 307° West 474 545 38,000  Level Miami Center
Sat 03:12:16 PM 23.2597 -76.6389 309° West 475 547 38,000  Level Miami Center
Sat 03:13:18 PM 23.3406 -76.7536 308° West 474 545 38,000  Level Miami Center
Sat 03:14:20 PM 23.4219 -76.8681 308° West 474 545 38,000  Level Miami Center
Sat 03:15:22 PM 23.5036 -76.9825 308° West 475 547 38,000  Level Miami Center
Sat 03:16:24 PM 23.5844 -77.0972 308° West 475 547 38,000  Level Miami Center
Sat 03:17:27 PM 23.6775 -77.2283 308° West 476 548 38,000  Level Miami Center
Sat 03:18:29 PM 23.7572 -77.3431 307° West 475 547 38,000  Level Miami Center
Sat 03:19:31 PM 23.8425 -77.4656 307° West 462 532 38,000  Level Miami Center
Sat 03:20:33 PM 23.9194 -77.5753 308° West 456 525 38,000 -53 Level Miami Center
Sat 03:25:11 PM 24.2758 -78.0915 307° West 456 525 37,700 -228 Descending FlightAware ADS-B (KEYW)
Sat 03:26:15 PM 24.3574 -78.2099 308° West 463 533 36,700 -961 Descending FlightAware ADS-B (KEYW)
Sat 03:28:12 PM 24.5119 -78.4346 307° West 463 533 34,800 -1,275 Descending FlightAware ADS-B (KEYW)
Sat 03:29:28 PM 24.6029 -78.5677 307° West 477 549 32,600 -1,900 Descending FlightAware ADS-B (KEYW)
Sat 03:30:12 PM 24.6688 -78.6644 307° West 465 535 31,000 -2,400 Descending FlightAware ADS-B (KEYW)
Sat 03:30:48 PM 24.7136 -78.7301 307° West 462 532 29,400 -2,545 Descending FlightAware ADS-B (KEYW)
Sat 03:31:18 PM 24.7372 -78.7651 307° West 472 543 28,200 -2,700 Descending FlightAware ADS-B (KEYW)
Sat 03:31:48 PM 24.7918 -78.8454 307° West 457 526 26,700 -2,550 Descending FlightAware ADS-B (KEYW)
Sat 03:33:18 PM 24.9039 -79.0113 307° West 440 506 23,100 -2,216 Descending FlightAware ADS-B (KEYW)
Sat 03:33:39 PM 24.9182 -79.0320 307° West 439 505 22,600 -2,122 Descending FlightAware ADS-B (KEYW)
Sat 03:36:19 PM 25.1149 -79.3251 307° West 400 460 16,700 -2,116 Descending FlightAware ADS-B (KEYW)
Sat 03:36:49 PM 25.1464 -79.3718 307° West 390 449 15,900 -1,840 Descending FlightAware ADS-B (KEYW)
Sat 03:37:34 PM 25.1881 -79.4341 307° West 368 423 14,400 -1,840 Descending FlightAware ADS-B (KEYW)
Sat 03:38:04 PM 25.2239 -79.4878 307° West 331 381 13,600 -1,360 Descending FlightAware ADS-B (KEYW)
Sat 03:38:49 PM 25.2614 -79.5444 307° West 286 329 12,700 -1,333 Descending FlightAware ADS-B (KEYW)
Sat 03:39:34 PM 25.2950 -79.5949 307° West 259 298 11,600 -1,648 Descending FlightAware ADS-B (KEYW)
Sat 03:40:20 PM 25.3264 -79.6426 307° West 250 288 10,200 -1,841 Descending FlightAware ADS-B (KEYW)
Sat 03:41:02 PM 25.3532 -79.6831 306° West 247 284 8,900 -1,831 Descending FlightAware ADS-B (KEYW)
Sat 03:41:19 PM 25.3652 -79.7015 307° West 239 275 8,400 -1,263 Descending FlightAware ADS-B (KEYW)
Sat 03:42:18 PM 25.4072 -79.7494 307° West 237 273 7,300 -1,079 Descending Miami Center
Sat 03:42:48 PM 25.4389 -79.7622 340° North 235 270 6,800 -1,065 Descending Miami Center
Sat 03:43:20 PM 25.4686 -79.7631 359° North 237 273 6,200 -1,164 Descending Miami Center
Sat 03:43:55 PM 25.5117 -79.7675 355° North 229 264 5,500 -1,065 Descending Miami Center
Sat 03:44:22 PM 25.5317 -79.7703 353° North 230 265 5,100 -1,091 Descending Miami Center
Sat 03:44:50 PM 25.5658 -79.7739 355° North 226 260 4,500 -1,065 Descending Miami Center
Sat 03:45:24 PM 25.5939 -79.7756 357° North 229 264 4,000 -500 Descending Miami Center
Sat 03:45:50 PM 25.6303 -79.7808 353° North 221 254 4,000  Level Miami Center
Sat 03:46:26 PM 25.6550 -79.7839 354° North 226 260 4,000  Level Miami Center
Sat 03:46:51 PM 25.6928 -79.7878 355° North 224 258 4,000  Level Miami Center
Sat 03:47:28 PM 25.7297 -79.7922 354° North 225 259 4,000  Level Miami Center
Sat 03:47:52 PM 25.7481 -79.8103 318° Northwest 219 252 4,000 -571 Level Miami Center
Sat 03:48:31 PM 25.7725 -79.8375 315° West 216 249 3,400 -984 Descending Miami Center
Sat 03:48:53 PM 25.7911 -79.8597 313° West 217 250 3,000 -387 Descending Miami Center
Sat 03:49:33 PM 25.8047 -79.8933 294° West 215 247 3,000  Level Miami Center
Sat 03:49:54 PM 25.8125 -79.9192 288° West 200 230 3,000  Level Miami Center
Sat 03:50:35 PM 25.8158 -79.9525 276° West 202 232 3,000  Level Miami Center
Sat 03:50:55 PM 25.8128 -79.9839 264° West 202 232 3,000  Level Miami Center
Sat 03:51:37 PM 25.8128 -80.0144 270° West 202 232 3,000  Level Miami Center
Sat 03:51:56 PM 25.8111 -80.0439 266° West 199 229 3,000  Level Miami Center
Sat 03:52:39 PM 25.8094 -80.0839 267° West 188 216 3,000  Level Miami Center
Sat 03:52:56 PM 25.8078 -80.0992 263° West 169 194 3,000 -677 Level Miami Center
Sat 03:53:41 PM 25.8081 -80.1361 270° West 177 204 2,300 -885 Descending Miami Center
Sat 03:53:57 PM 25.8067 -80.1522 265° West 170 196 2,100 -774 Descending Miami Center
Sat 03:54:43 PM 25.8053 -80.1861 267° West 167 192 1,500 -787 Descending Miami Center
Sat 03:54:58 PM 25.8036 -80.2006 263° West 154 177 1,300 -677 Descending Miami Center
Sat 03:55:45 PM 25.8036 -80.2308 270° West 148 170 800 -787 Descending Miami Center
Sat 03:55:59 PM 25.8028 -80.2469 267° West 141 162 500 -667 Descending Miami Center
Sat 03:56:48 PM 25.8019 -80.2781 268° West 144 166 100 -490 Descending Miami Center

Login

Don't have an account? Register now (free) for customized features, flight alerts, and more!